Time;durP1;ratioP1;P1;durP2;ratioP2;P2;SDS_P1;SDS_P2;PMS_P1;PMS_P2;Temp;Humidity;BMP_temperature;BMP_pressure;BME280_temperature;BME280_humidity;BME280_pressure;Samples;Min_cycle;Max_cycle;Signal;HPM_P1;HPM_P2
2021/08/02 00:01:05;;;;;;;5.53;2.07;;;;;;;15.67;70.54;100963.06;3588971;40;20558;-75
2021/08/02 00:03:49;;;;;;;2.20;1.80;;;;;;;15.75;70.12;100958.75;3588751;40;20621;-74
2021/08/02 00:06:27;;;;;;;5.13;2.07;;;;;;;15.92;70.30;100969.94;3589348;40;20221;-75
2021/08/02 00:09:02;;;;;;;3.07;1.80;;;;;;;15.69;70.43;100968.22;3589004;40;20331;-74
2021/08/02 00:11:39;;;;;;;3.83;1.90;;;;;;;15.64;71.33;100964.75;3588779;40;20272;-75
2021/08/02 00:14:07;;;;;;;3.40;2.20;;;;;;;15.63;71.54;100968.22;3588656;40;20235;-75
2021/08/02 00:16:35;;;;;;;3.87;1.90;;;;;;;15.66;70.94;100969.06;3589144;40;20236;-75
2021/08/02 00:19:00;;;;;;;6.90;2.23;;;;;;;15.59;70.97;100958.75;3588798;40;20248;-74
2021/08/02 00:21:26;;;;;;;3.10;1.80;;;;;;;15.42;72.10;100953.56;3589010;40;20691;-75
2021/08/02 00:23:51;;;;;;;4.37;2.10;;;;;;;15.36;72.29;100963.00;3588762;40;20221;-75
2021/08/02 00:26:18;;;;;;;4.97;2.37;;;;;;;15.47;72.37;100949.25;3589024;40;20284;-74
2021/08/02 00:28:44;;;;;;;3.07;1.90;;;;;;;15.43;72.22;100959.59;3579490;40;20508;-74
2021/08/02 00:31:11;;;;;;;5.77;2.30;;;;;;;15.27;72.55;100962.94;3588870;40;20225;-75
2021/08/02 00:33:36;;;;;;;4.43;2.00;;;;;;;15.30;73.08;100968.13;3588893;40;20526;-75
2021/08/02 00:36:26;;;;;;;2.70;1.83;;;;;;;14.97;73.75;100971.47;3589085;40;20224;-75
2021/08/02 00:39:03;;;;;;;4.80;2.50;;;;;;;14.88;74.38;100966.25;3587612;40;20233;-75
2021/08/02 00:41:59;;;;;;;4.47;1.90;;;;;;;14.85;74.51;100961.13;3588808;40;20268;-75
2021/08/02 00:45:04;;;;;;;5.90;2.07;;;;;;;14.98;74.40;100962.91;3589028;40;20221;-75
2021/08/02 00:47:40;;;;;;;5.07;2.20;;;;;;;15.01;73.58;100967.19;3578880;40;20526;-75
2021/08/02 00:50:10;;;;;;;4.83;1.70;;;;;;;14.87;73.71;100966.28;3579490;40;20244;-75
2021/08/02 00:52:41;;;;;;;2.77;1.53;;;;;;;14.70;74.89;100966.22;3588936;40;20484;-75
2021/08/02 00:55:07;;;;;;;3.50;1.97;;;;;;;15.25;73.32;100975.00;3588589;40;20291;-75
2021/08/02 00:57:37;;;;;;;2.87;1.67;;;;;;;15.57;71.37;100973.38;3589068;40;20229;-75
2021/08/02 01:00:06;;;;;;;4.00;1.93;;;;;;;15.55;70.82;100977.66;3588622;40;20244;-75
2021/08/02 01:02:37;;;;;;;5.63;1.80;;;;;;;15.27;71.91;100973.28;3588471;40;20237;-75
2021/08/02 01:05:05;;;;;;;3.10;1.60;;;;;;;15.33;71.53;100969.00;3588214;40;20265;-75
2021/08/02 01:07:33;;;;;;;5.80;2.20;;;;;;;15.50;71.19;100971.63;3588572;40;20241;-75
2021/08/02 01:09:59;;;;;;;5.67;2.03;;;;;;;15.54;71.00;100961.34;3588366;40;20345;-75
2021/08/02 01:12:25;;;;;;;2.73;1.67;;;;;;;15.18;71.78;100970.66;3588496;40;20224;-75
2021/08/02 01:14:54;;;;;;;4.37;1.80;;;;;;;15.58;70.48;100968.22;3588667;40;20225;-75
2021/08/02 01:17:19;;;;;;;4.20;1.90;;;;;;;15.52;70.94;100969.94;3588346;40;20229;-75
2021/08/02 01:19:47;;;;;;;4.67;2.00;;;;;;;15.54;70.70;100969.06;3588250;40;20233;-75
2021/08/02 01:22:25;;;;;;;2.67;1.60;;;;;;;15.25;71.96;100972.44;3588176;40;20318;-75
2021/08/02 01:24:50;;;;;;;3.87;2.00;;;;;;;15.24;72.61;100978.44;3588378;40;20248;-75
2021/08/02 01:27:45;;;;;;;3.37;1.50;;;;;;;15.19;72.59;100965.53;3588486;40;20584;-75
2021/08/02 01:30:18;;;;;;;2.47;1.60;;;;;;;15.39;71.25;100971.66;3588329;40;20595;-75
2021/08/02 01:32:45;;;;;;;6.07;1.87;;;;;;;15.63;71.23;100966.50;3588493;40;20229;-75
2021/08/02 01:35:12;;;;;;;3.83;1.87;;;;;;;15.51;72.19;100976.81;3588076;40;20600;-75
2021/08/02 01:37:38;;;;;;;4.57;1.70;;;;;;;15.46;70.94;100973.34;3588590;40;20607;-75
2021/08/02 01:40:04;;;;;;;5.00;2.10;;;;;;;15.45;71.32;100976.81;3588448;40;20241;-75
2021/08/02 01:42:29;;;;;;;5.63;2.07;;;;;;;15.37;71.34;100975.06;3588239;40;20225;-74
2021/08/02 01:44:55;;;;;;;2.80;1.70;;;;;;;15.09;72.52;100981.84;3588194;40;20232;-75
2021/08/02 01:47:29;;;;;;;5.33;1.67;;;;;;;15.07;72.95;100986.13;3583305;40;20222;-75
2021/08/02 01:50:03;;;;;;;2.73;1.60;;;;;;;15.10;72.24;100987.88;3588234;40;20604;-75
2021/08/02 01:52:39;;;;;;;3.20;1.60;;;;;;;15.22;71.72;100986.19;3588346;40;20225;-74
2021/08/02 01:55:17;;;;;;;4.10;1.77;;;;;;;15.20;72.00;100987.03;3588281;40;20237;-75
2021/08/02 01:58:00;;;;;;;3.30;1.70;;;;;;;14.99;72.52;100989.53;3588278;40;20264;-74
2021/08/02 02:00:27;;;;;;;5.73;1.90;;;;;;;15.10;72.50;100986.13;3588348;40;20229;-74
2021/08/02 02:03:10;;;;;;;4.30;2.00;;;;;;;15.15;71.14;100984.41;3588397;40;20224;-74
2021/08/02 02:05:41;;;;;;;4.00;1.57;;;;;;;15.16;71.90;100983.59;3588053;40;20237;-75
2021/08/02 02:08:22;;;;;;;4.63;1.40;;;;;;;15.16;71.25;100983.59;3588401;40;20229;-74
2021/08/02 02:10:59;;;;;;;6.43;1.43;;;;;;;15.15;71.82;100988.75;3578807;40;20225;-75
2021/08/02 02:13:30;;;;;;;2.83;1.60;;;;;;;15.12;71.68;100994.75;3588360;40;20243;-75
2021/08/02 02:15:58;;;;;;;4.53;1.73;;;;;;;14.96;71.75;100998.13;3588488;40;20248;-75
2021/08/02 02:18:27;;;;;;;5.10;1.73;;;;;;;14.92;71.86;101004.09;3588127;40;20252;-73
2021/08/02 02:20:54;;;;;;;3.80;1.80;;;;;;;14.94;72.73;100994.69;3588155;40;20224;-73
2021/08/02 02:23:20;;;;;;;2.60;1.33;;;;;;;14.80;72.62;101000.63;3590529;40;20241;-73
2021/08/02 02:25:46;;;;;;;6.17;1.90;;;;;;;14.89;72.46;101001.53;3590782;40;20232;-74
2021/08/02 02:28:12;;;;;;;3.63;1.80;;;;;;;14.80;72.85;101003.19;3588647;40;20237;-73
2021/08/02 02:30:40;;;;;;;4.93;1.50;;;;;;;14.50;74.19;100996.16;3588300;40;20221;-73
2021/08/02 02:33:06;;;;;;;6.60;1.97;;;;;;;14.48;73.95;101004.72;3588237;40;20249;-73
2021/08/02 02:35:33;;;;;;;3.40;1.70;;;;;;;14.36;74.50;101002.09;3588509;40;20218;-73
2021/08/02 02:37:58;;;;;;;4.67;1.50;;;;;;;14.71;73.52;100992.84;3588433;40;20589;-73
2021/08/02 02:40:24;;;;;;;6.07;1.60;;;;;;;14.90;71.71;100992.94;3583756;40;20229;-73
2021/08/02 02:42:50;;;;;;;3.47;1.70;;;;;;;14.84;71.82;101000.66;3587837;40;20214;-74
2021/08/02 02:45:15;;;;;;;3.07;1.40;;;;;;;14.83;71.48;101001.50;3588138;40;20228;-75
2021/08/02 02:47:44;;;;;;;6.33;1.87;;;;;;;15.00;70.71;101005.00;3578799;40;20228;-73
2021/08/02 02:50:10;;;;;;;5.10;1.70;;;;;;;14.97;70.59;101007.56;3587836;40;20248;-75
2021/08/02 02:52:35;;;;;;;3.60;1.47;;;;;;;14.85;71.57;101004.94;3588213;40;20236;-76
2021/08/02 02:55:02;;;;;;;2.93;1.60;;;;;;;14.72;71.56;101002.28;3588006;40;20217;-75
2021/08/02 02:57:28;;;;;;;3.97;1.80;;;;;;;14.59;71.68;100997.94;3587843;40;20225;-73
2021/08/02 02:59:53;;;;;;;3.33;1.60;;;;;;;14.51;72.46;101005.59;3587913;40;20249;-73
2021/08/02 03:02:21;;;;;;;3.43;1.47;;;;;;;14.40;72.94;101006.38;3589155;40;20701;-73
2021/08/02 03:04:50;;;;;;;4.50;1.80;;;;;;;14.63;71.92;101009.97;3589334;40;20241;-75
2021/08/02 03:07:16;;;;;;;3.97;1.30;;;;;;;14.47;72.74;101011.63;3589483;40;20248;-74
2021/08/02 03:09:45;;;;;;;5.27;2.20;;;;;;;14.50;72.45;101021.09;3589313;40;20241;-73
2021/08/02 03:12:11;;;;;;;5.13;1.73;;;;;;;14.34;73.47;101014.09;3589336;40;20256;-75
2021/08/02 03:14:36;;;;;;;4.80;1.60;;;;;;;14.47;72.41;101021.06;3580352;40;20715;-75
2021/08/02 03:17:05;;;;;;;3.63;1.50;;;;;;;14.47;71.95;101018.47;3580276;40;20247;-74
2021/08/02 03:19:30;;;;;;;6.90;2.07;;;;;;;14.48;72.33;101022.78;3589446;40;20236;-75
2021/08/02 03:21:56;;;;;;;5.00;1.50;;;;;;;14.52;72.58;101024.53;3589270;40;20228;-74
2021/08/02 03:24:30;;;;;;;4.07;1.60;;;;;;;14.51;72.17;101027.97;3589121;40;20310;-74
2021/08/02 03:26:59;;;;;;;1.87;1.50;;;;;;;14.62;72.08;101026.28;3589351;40;20280;-75
2021/08/02 03:29:31;;;;;;;5.03;1.90;;;;;;;14.69;71.86;101028.91;3589306;40;20275;-75
2021/08/02 03:32:03;;;;;;;5.27;2.30;;;;;;;14.54;72.18;101030.56;3589499;40;20306;-75
2021/08/02 03:34:32;;;;;;;4.60;2.03;;;;;;;14.64;71.85;101032.34;3589107;40;20229;-74
2021/08/02 03:37:01;;;;;;;4.70;1.73;;;;;;;14.71;71.70;101032.38;3589285;40;20343;-75
2021/08/02 03:39:27;;;;;;;5.67;1.90;;;;;;;14.66;72.16;101030.63;3588483;40;20318;-74
2021/08/02 03:41:54;;;;;;;4.40;1.60;;;;;;;14.67;72.02;101034.91;3587425;40;20316;-75
2021/08/02 03:44:20;;;;;;;4.30;1.67;;;;;;;14.49;71.86;101037.38;3589228;40;20338;-75
2021/08/02 03:46:47;;;;;;;3.23;1.90;;;;;;;14.53;72.32;101034.84;3588802;40;20241;-75
2021/08/02 03:49:12;;;;;;;5.13;1.90;;;;;;;14.60;72.55;101038.31;3588684;40;20252;-75
2021/08/02 03:51:48;;;;;;;5.43;1.97;;;;;;;14.58;72.66;101032.28;3589247;40;20221;-75
2021/08/02 03:54:15;;;;;;;3.80;1.80;;;;;;;14.51;72.43;101031.38;3588880;40;20228;-74
2021/08/02 03:56:42;;;;;;;2.73;1.70;;;;;;;14.57;72.05;101026.28;3588972;40;20504;-75
2021/08/02 03:59:07;;;;;;;4.40;1.77;;;;;;;14.50;72.79;101039.13;3588802;40;20260;-74
2021/08/02 04:01:37;;;;;;;5.80;2.03;;;;;;;14.64;73.00;101042.66;3588973;40;20805;-75
2021/08/02 04:04:03;;;;;;;5.33;1.60;;;;;;;14.56;72.95;101040.03;3589014;40;20225;-75
2021/08/02 04:06:28;;;;;;;4.60;1.77;;;;;;;14.72;72.31;101046.13;3588915;40;20515;-75
2021/08/02 04:08:53;;;;;;;3.57;1.53;;;;;;;14.70;72.98;101047.84;3588731;40;20260;-75
2021/08/02 04:11:18;;;;;;;7.07;1.93;;;;;;;14.86;72.14;101036.75;3588768;40;20240;-75
2021/08/02 04:13:44;;;;;;;7.53;1.90;;;;;;;14.91;71.71;101047.97;3579663;40;20229;-74
2021/08/02 04:16:09;;;;;;;4.40;1.80;;;;;;;14.70;72.68;101043.56;3588707;40;20603;-75
2021/08/02 04:18:34;;;;;;;6.43;2.10;;;;;;;14.97;72.58;101048.00;3588530;40;20243;-74
2021/08/02 04:21:00;;;;;;;5.73;2.10;;;;;;;14.72;72.60;101057.31;3588775;40;20229;-75
2021/08/02 04:23:25;;;;;;;3.87;1.60;;;;;;;14.91;72.39;101047.97;3589017;40;20244;-75
2021/08/02 04:25:50;;;;;;;6.63;2.17;;;;;;;15.00;72.01;101060.88;3589265;40;20221;-75
2021/08/02 04:28:15;;;;;;;4.90;1.90;;;;;;;14.87;72.62;101041.06;3588948;40;20251;-74
2021/08/02 04:30:41;;;;;;;4.67;2.30;;;;;;;14.84;72.61;101054.81;3588977;40;20224;-75
2021/08/02 04:33:06;;;;;;;4.40;2.10;;;;;;;15.04;72.23;101055.75;3588086;40;20241;-75
2021/08/02 04:35:32;;;;;;;2.87;1.80;;;;;;;14.76;72.55;101055.59;3588849;40;20222;-75
2021/08/02 04:37:57;;;;;;;9.30;2.77;;;;;;;15.05;72.14;101062.63;3588812;40;20310;-75
2021/08/02 04:40:22;;;;;;;6.10;2.07;;;;;;;14.96;72.70;101060.00;3588843;40;20244;-74
2021/08/02 04:42:48;;;;;;;5.77;2.30;;;;;;;14.86;72.91;101060.81;3588775;40;20221;-74
2021/08/02 04:45:13;;;;;;;2.97;2.00;;;;;;;14.83;73.08;101058.22;3588642;40;20224;-74
2021/08/02 04:47:39;;;;;;;3.50;1.93;;;;;;;14.78;73.61;101059.91;3583269;40;20232;-75
2021/08/02 04:50:04;;;;;;;4.47;2.00;;;;;;;14.88;72.96;101063.41;3566319;40;20253;-75
2021/08/02 04:52:30;;;;;;;5.70;1.97;;;;;;;15.13;72.49;101066.13;3566521;40;20278;-75
2021/08/02 04:54:56;;;;;;;3.30;1.90;;;;;;;15.19;71.79;101068.72;3576284;40;20229;-75
2021/08/02 04:57:22;;;;;;;4.53;1.80;;;;;;;14.99;72.67;101067.78;3578823;40;20245;-75
2021/08/02 04:59:47;;;;;;;5.63;2.73;;;;;;;15.13;72.31;101072.97;3578369;40;20241;-75
2021/08/02 05:02:12;;;;;;;7.50;2.43;;;;;;;15.10;72.76;101076.41;3578583;40;20243;-75
2021/08/02 05:04:37;;;;;;;4.67;2.30;;;;;;;15.13;72.71;101075.56;3578486;40;20233;-75
2021/08/02 05:07:03;;;;;;;6.73;2.37;;;;;;;15.22;71.98;101065.28;3578589;40;20242;-75
2021/08/02 05:09:28;;;;;;;5.07;2.20;;;;;;;15.09;72.62;101056.63;3578588;40;20256;-75
2021/08/02 05:11:53;;;;;;;8.60;2.27;;;;;;;15.24;72.78;101058.44;3581527;40;20229;-75
2021/08/02 05:14:19;;;;;;;5.53;2.47;;;;;;;15.26;72.25;101078.22;3588688;40;20217;-75
2021/08/02 05:16:44;;;;;;;6.40;2.27;;;;;;;15.10;72.87;101080.72;3588729;40;20224;-74
2021/08/02 05:19:11;;;;;;;5.50;2.07;;;;;;;15.08;72.65;101077.25;3584919;40;20509;-75
2021/08/02 05:21:36;;;;;;;7.57;2.50;;;;;;;15.10;73.09;101078.16;3578441;40;20229;-75
2021/08/02 05:24:01;;;;;;;5.40;2.23;;;;;;;15.09;73.26;101086.72;3587333;40;20233;-74
2021/08/02 05:26:27;;;;;;;3.63;2.40;;;;;;;15.25;72.60;101079.09;3588732;40;20222;-75
2021/08/02 05:28:52;;;;;;;6.07;2.50;;;;;;;15.17;72.33;101078.19;3588605;40;20233;-75
2021/08/02 05:31:17;;;;;;;5.33;2.53;;;;;;;15.36;72.05;101087.75;3588881;40;20224;-75
2021/08/02 05:33:43;;;;;;;6.93;2.50;;;;;;;15.34;71.60;101083.44;3588854;40;20216;-75
2021/08/02 05:36:08;;;;;;;5.67;2.10;;;;;;;15.27;72.55;101090.25;3588554;40;20229;-74
2021/08/02 05:38:33;;;;;;;8.13;2.50;;;;;;;15.35;72.57;101091.19;3588473;40;20244;-74
2021/08/02 05:40:59;;;;;;;5.23;1.77;;;;;;;15.27;73.09;101084.22;3584109;40;20240;-75
2021/08/02 05:43:25;;;;;;;6.30;2.67;;;;;;;15.40;72.39;101083.44;3588382;40;20233;-75
2021/08/02 05:45:50;;;;;;;7.93;2.27;;;;;;;15.62;71.62;101093.00;3588338;40;20236;-75
2021/08/02 05:48:16;;;;;;;7.07;2.30;;;;;;;15.64;72.40;101091.28;3587854;40;20318;-75
2021/08/02 05:50:41;;;;;;;6.33;2.37;;;;;;;15.55;72.00;101089.53;3577439;40;20597;-74
2021/08/02 05:53:06;;;;;;;8.80;2.03;;;;;;;15.77;70.63;101090.44;3578377;40;20608;-76
2021/08/02 05:55:31;;;;;;;4.00;2.10;;;;;;;15.47;72.12;101087.81;3578489;40;20315;-74
2021/08/02 05:57:57;;;;;;;4.60;2.40;;;;;;;15.73;71.21;101084.44;3578163;40;20225;-74
2021/08/02 06:00:23;;;;;;;4.67;2.20;;;;;;;15.71;71.48;101091.28;3578418;40;20234;-74
2021/08/02 06:02:48;;;;;;;5.33;2.00;;;;;;;15.92;70.99;101083.59;3578608;40;20222;-76
2021/08/02 06:05:13;;;;;;;4.17;2.20;;;;;;;15.70;71.85;101083.56;3578114;40;20241;-75
2021/08/02 06:07:42;;;;;;;2.73;1.53;;;;;;;15.80;71.64;101085.31;3578117;40;20238;-74
2021/08/02 06:10:08;;;;;;;5.23;2.20;;;;;;;15.78;72.13;101080.13;3578329;40;20230;-74
2021/08/02 06:12:33;;;;;;;6.93;2.30;;;;;;;15.81;71.71;101087.91;3578221;40;20253;-75
2021/08/02 06:14:59;;;;;;;7.40;2.40;;;;;;;15.96;71.01;101084.47;3579012;40;20311;-76
2021/08/02 06:17:24;;;;;;;3.80;1.87;;;;;;;16.06;70.95;101088.78;3578781;40;20230;-73
2021/08/02 06:19:49;;;;;;;5.30;2.10;;;;;;;16.03;71.05;101089.63;3578053;40;20245;-73
2021/08/02 06:22:14;;;;;;;3.17;1.77;;;;;;;16.13;70.50;101091.38;3578017;40;20477;-73
2021/08/02 06:24:42;;;;;;;3.57;1.97;;;;;;;16.30;70.58;101096.56;3580224;40;20244;-74
2021/08/02 06:27:07;;;;;;;4.20;2.00;;;;;;;16.32;70.03;101098.28;3578110;40;20261;-73
2021/08/02 06:29:33;;;;;;;8.43;2.03;;;;;;;16.59;68.78;101095.72;3579146;40;20631;-74
2021/08/02 06:31:58;;;;;;;6.73;2.30;;;;;;;16.69;67.46;101105.19;3579798;40;20222;-73
2021/08/02 06:34:23;;;;;;;6.50;2.00;;;;;;;16.86;67.00;101100.00;3579614;40;20244;-73
2021/08/02 06:36:48;;;;;;;4.03;1.60;;;;;;;16.70;68.30;101103.44;3579918;40;20221;-74
2021/08/02 06:39:14;;;;;;;7.93;2.27;;;;;;;16.65;68.71;101098.28;3591749;40;20326;-76
2021/08/02 06:41:39;;;;;;;3.60;1.60;;;;;;;16.58;69.24;101098.31;3583452;40;20225;-75
2021/08/02 06:44:04;;;;;;;7.20;1.87;;;;;;;16.61;68.51;101099.16;3578617;40;20226;-75
2021/08/02 06:46:30;;;;;;;4.13;1.57;;;;;;;16.73;68.37;101095.69;3578169;40;20225;-75
2021/08/02 06:48:55;;;;;;;5.40;1.90;;;;;;;16.98;67.15;101099.94;3578119;40;20803;-74
2021/08/02 06:51:20;;;;;;;5.03;2.07;;;;;;;16.81;67.71;101110.34;3578737;40;20226;-74
2021/08/02 06:53:46;;;;;;;4.07;2.03;;;;;;;16.98;66.72;101118.06;3577726;40;20218;-74
2021/08/02 06:56:11;;;;;;;3.93;1.70;;;;;;;16.66;68.01;101114.66;3581487;40;20221;-74
2021/08/02 06:58:36;;;;;;;6.57;2.03;;;;;;;16.77;67.54;101112.94;3587665;40;20233;-74
2021/08/02 07:01:02;;;;;;;4.20;1.70;;;;;;;16.87;67.78;101125.00;3587652;40;20229;-74
2021/08/02 07:03:27;;;;;;;5.70;1.73;;;;;;;16.85;67.29;101124.16;3587571;40;20221;-73
2021/08/02 07:05:52;;;;;;;3.00;1.47;;;;;;;16.95;66.88;101131.88;3587911;40;20249;-73
2021/08/02 07:08:19;;;;;;;6.27;2.10;;;;;;;16.89;67.57;101131.00;3587960;40;20507;-74
2021/08/02 07:10:44;;;;;;;3.87;1.47;;;;;;;16.83;67.95;101126.72;3587890;40;20638;-75
2021/08/02 07:13:10;;;;;;;5.97;2.10;;;;;;;16.97;67.72;101118.94;3587747;40;20218;-74
2021/08/02 07:15:35;;;;;;;3.80;1.40;;;;;;;17.14;67.15;101130.13;3587665;40;20224;-74
2021/08/02 07:18:00;;;;;;;4.47;1.87;;;;;;;17.16;67.67;101139.59;3578455;40;20566;-74
2021/08/02 07:20:25;;;;;;;4.37;1.70;;;;;;;17.17;66.83;101137.88;3588306;40;20224;-74
2021/08/02 07:22:51;;;;;;;4.43;1.93;;;;;;;17.33;67.10;101139.53;3587612;40;20237;-75
2021/08/02 07:25:17;;;;;;;5.57;2.20;;;;;;;17.27;66.84;101147.34;3587254;40;20236;-74
2021/08/02 07:27:42;;;;;;;5.83;1.80;;;;;;;17.63;65.85;101142.91;3582492;40;20230;-77
2021/08/02 07:30:09;;;;;;;5.47;2.10;;;;;;;17.73;65.84;101143.75;3618347;22;20254;-80
2021/08/02 07:32:34;;;;;;;3.93;1.77;;;;;;;17.64;66.27;101141.19;3571645;40;20223;-80
2021/08/02 07:35:00;;;;;;;4.90;1.77;;;;;;;18.03;64.13;101143.56;3573008;40;20230;-80
2021/08/02 07:37:25;;;;;;;4.57;2.10;;;;;;;17.97;64.41;101148.78;3568195;40;20222;-80
2021/08/02 07:39:50;;;;;;;6.37;1.77;;;;;;;17.93;63.67;101141.88;3572349;40;20238;-80
2021/08/02 07:42:15;;;;;;;5.00;2.07;;;;;;;18.07;64.04;101138.34;3570017;40;20224;-81
2021/08/02 07:44:41;;;;;;;5.67;1.80;;;;;;;18.14;63.13;101128.81;3568200;40;20234;-80
2021/08/02 07:47:06;;;;;;;10.17;2.10;;;;;;;18.15;63.61;101128.78;3573857;40;20247;-80
2021/08/02 07:49:31;;;;;;;3.37;1.80;;;;;;;18.08;64.25;101126.25;3574768;40;20258;-80
2021/08/02 07:51:57;;;;;;;4.00;1.87;;;;;;;18.34;63.14;101140.78;3572015;40;20222;-80
2021/08/02 07:54:22;;;;;;;5.67;1.90;;;;;;;18.29;62.89;101136.47;3573517;40;20232;-80
2021/08/02 07:56:47;;;;;;;4.87;1.73;;;;;;;18.48;61.59;101133.78;3570811;40;20226;-81
2021/08/02 07:59:12;;;;;;;5.03;1.60;;;;;;;18.27;62.91;101139.06;3575965;40;20505;-80
2021/08/02 08:01:38;;;;;;;4.87;1.60;;;;;;;18.23;63.06;101139.97;3577144;40;20233;-80
2021/08/02 08:04:03;;;;;;;3.43;1.50;;;;;;;18.20;62.92;101139.13;3576519;40;20222;-81
2021/08/02 08:06:28;;;;;;;5.07;1.70;;;;;;;18.29;62.45;101136.47;3571964;40;20246;-81
2021/08/02 08:08:54;;;;;;;4.57;1.70;;;;;;;18.32;62.62;101133.84;3576659;40;20230;-81
2021/08/02 08:11:19;;;;;;;3.07;1.60;;;;;;;18.44;62.84;101137.25;3578684;40;20235;-81
2021/08/02 08:13:44;;;;;;;4.90;1.70;;;;;;;18.37;63.02;101138.16;3582366;40;20234;-81
2021/08/02 08:16:09;;;;;;;3.40;1.50;;;;;;;18.60;63.12;101138.00;3585991;40;20225;-80
2021/08/02 08:18:35;;;;;;;3.67;1.27;;;;;;;18.76;61.71;101134.38;3577893;40;20238;-81
2021/08/02 08:21:02;;;;;;;4.33;1.47;;;;;;;18.68;61.61;101131.84;3574150;40;20234;-82
2021/08/02 08:23:30;;;;;;;6.10;1.80;;;;;;;18.65;60.62;101142.25;3572243;40;20234;-83
2021/08/02 08:25:56;;;;;;;5.60;1.53;;;;;;;18.63;60.65;101133.63;3573886;40;20238;-80
2021/08/02 08:28:21;;;;;;;4.97;1.37;;;;;;;18.73;60.74;101137.88;3575604;40;20257;-81
2021/08/02 08:30:47;;;;;;;5.50;1.50;;;;;;;18.50;61.58;101139.78;3576525;40;20248;-81
2021/08/02 08:33:12;;;;;;;4.00;1.30;;;;;;;18.42;62.48;101141.59;3575759;40;20613;-81
2021/08/02 08:35:37;;;;;;;3.93;1.40;;;;;;;18.41;62.10;101142.47;3574090;40;20253;-81
2021/08/02 08:38:07;;;;;;;3.53;1.57;;;;;;;18.00;65.50;101160.00;3573200;40;20234;-80
2021/08/02 08:40:33;;;;;;;4.23;1.20;;;;;;;18.05;66.27;101162.56;3572506;40;20230;-80
2021/08/02 08:42:59;;;;;;;4.20;1.37;;;;;;;17.76;66.60;101173.06;3571646;40;20822;-80
2021/08/02 08:45:27;;;;;;;3.50;1.10;;;;;;;17.90;64.38;101167.81;3574558;40;20226;-81
2021/08/02 08:47:54;;;;;;;2.47;0.90;;;;;;;17.51;65.59;101162.81;3573701;40;20215;-80
2021/08/02 08:50:20;;;;;;;3.07;1.00;;;;;;;17.37;65.57;101167.16;3572107;40;20712;-80
2021/08/02 08:52:49;;;;;;;3.90;1.30;;;;;;;17.00;66.65;101165.50;3573726;40;20219;-83
2021/08/02 08:55:15;;;;;;;3.57;1.40;;;;;;;16.91;67.16;101162.94;3574856;40;20218;-82
2021/08/02 08:57:42;;;;;;;1.87;0.87;;;;;;;16.77;67.96;101178.44;3574692;40;20245;-79
2021/08/02 09:00:20;;;;;;;2.60;1.10;;;;;;;16.79;68.48;101176.75;3573200;40;20242;-80
2021/08/02 09:02:45;;;;;;;2.83;1.10;;;;;;;16.90;67.63;101174.16;3574480;40;20266;-80
2021/08/02 09:05:10;;;;;;;1.40;1.00;;;;;;;16.90;68.02;101184.50;3574699;40;20312;-81
2021/08/02 09:07:41;;;;;;;1.90;1.00;;;;;;;16.89;68.71;101177.56;3576063;40;20238;-81
2021/08/02 09:10:09;;;;;;;2.60;1.23;;;;;;;16.80;69.62;101180.19;3575666;40;20271;-80
2021/08/02 09:12:35;;;;;;;2.10;0.90;;;;;;;16.66;70.79;101177.59;3575980;40;20238;-81
2021/08/02 09:15:05;;;;;;;2.53;1.33;;;;;;;16.94;70.43;101173.28;3576363;40;20237;-81
2021/08/02 09:17:38;;;;;;;2.97;1.40;;;;;;;16.87;71.42;101179.31;3575073;40;20241;-81
2021/08/02 09:20:18;;;;;;;2.57;1.00;;;;;;;16.87;71.50;101177.59;3566897;40;20245;-81
2021/08/02 09:22:49;;;;;;;5.70;1.60;;;;;;;17.02;71.31;101176.72;3575620;40;20222;-80
2021/08/02 09:25:19;;;;;;;4.50;1.40;;;;;;;17.04;71.35;101172.41;3583141;40;20234;-82
2021/08/02 09:27:44;;;;;;;2.20;1.10;;;;;;;17.04;71.26;101169.81;3576333;40;20230;-80
2021/08/02 09:30:20;;;;;;;3.40;1.47;;;;;;;17.28;70.56;101175.81;3574357;40;20242;-80
2021/08/02 09:32:47;;;;;;;2.67;1.13;;;;;;;17.41;70.00;101174.91;3564876;40;20249;-81
2021/08/02 09:35:12;;;;;;;3.73;1.50;;;;;;;17.69;68.42;101173.13;3569242;40;20238;-81
2021/08/02 09:37:37;;;;;;;3.87;1.23;;;;;;;17.71;68.98;101171.38;3574470;40;20308;-82
2021/08/02 09:40:07;;;;;;;2.37;1.00;;;;;;;18.05;67.12;101167.75;3573996;40;20242;-81
2021/08/02 09:42:32;;;;;;;4.37;1.20;;;;;;;18.31;66.42;101171.91;3575645;40;20296;-82
2021/08/02 09:45:02;;;;;;;5.77;1.60;;;;;;;18.71;64.57;101162.97;3575818;40;20238;-81
2021/08/02 09:47:29;;;;;;;2.00;1.20;;;;;;;18.84;64.67;101166.31;3579338;40;20246;-81
2021/08/02 09:49:55;;;;;;;3.63;1.40;;;;;;;19.00;64.41;101157.50;3575709;40;20264;-81
2021/08/02 09:52:20;;;;;;;2.83;1.13;;;;;;;19.31;62.46;101161.53;3575534;40;20227;-79
2021/08/02 09:54:46;;;;;;;4.10;1.50;;;;;;;19.42;63.15;101155.34;3575751;40;20296;-81
2021/08/02 09:57:12;;;;;;;3.03;1.17;;;;;;;19.62;61.75;101158.56;3576315;40;20593;-81
2021/08/02 09:59:40;;;;;;;1.57;1.00;;;;;;;20.02;60.63;101153.69;3574097;40;20897;-83
2021/08/02 10:02:07;;;;;;;4.23;1.40;;;;;;;20.13;60.04;101151.84;3571323;40;20233;-81
2021/08/02 10:04:33;;;;;;;2.67;1.33;;;;;;;20.11;59.94;101149.28;3575819;40;20718;-81
2021/08/02 10:06:59;;;;;;;2.57;1.10;;;;;;;19.93;60.57;101149.50;3575041;40;20234;-81
2021/08/02 10:09:31;;;;;;;4.10;1.40;;;;;;;20.18;60.62;101137.88;3572841;40;20230;-80
2021/08/02 10:11:57;;;;;;;2.87;1.63;;;;;;;20.61;58.06;101138.06;3572040;40;20516;-81
2021/08/02 10:14:33;;;;;;;3.53;1.23;;;;;;;21.03;57.84;101138.22;3574550;40;20395;-80
2021/08/02 10:17:10;;;;;;;5.20;1.50;;;;;;;21.21;57.15;101137.00;3575092;40;20603;-81
2021/08/02 10:19:41;;;;;;;3.80;1.23;;;;;;;21.21;53.19;101144.81;3573261;40;20230;-79
2021/08/02 10:22:08;;;;;;;2.37;1.47;;;;;;;20.98;54.22;101139.19;3575192;40;20231;-80
2021/08/02 10:24:48;;;;;;;4.57;1.30;;;;;;;20.81;54.71;101149.00;3568683;40;20691;-80
2021/08/02 10:27:24;;;;;;;2.27;1.00;;;;;;;20.59;55.44;101145.91;3571193;40;20226;-80
2021/08/02 10:29:49;;;;;;;3.43;1.50;;;;;;;20.57;55.62;101147.69;3573573;40;20240;-80
2021/08/02 10:32:27;;;;;;;2.33;1.17;;;;;;;20.51;54.70;101150.38;3570799;40;20235;-79
2021/08/02 10:34:55;;;;;;;3.93;1.10;;;;;;;20.58;55.47;101146.78;3573811;40;20324;-80
2021/08/02 10:37:36;;;;;;;3.53;1.23;;;;;;;20.73;55.13;101156.94;3568987;40;20251;-80
2021/08/02 10:40:12;;;;;;;4.07;1.33;;;;;;;21.03;54.07;101155.56;3570292;40;20238;-78
2021/08/02 10:42:49;;;;;;;2.33;1.43;;;;;;;21.41;53.26;101156.56;3572376;40;20250;-80
2021/08/02 10:45:14;;;;;;;3.17;1.37;;;;;;;21.63;52.30;101155.25;3580158;40;20637;-79
2021/08/02 10:47:42;;;;;;;3.37;1.20;;;;;;;21.62;52.76;101152.69;3573129;40;20244;-79
2021/08/02 10:50:08;;;;;;;3.57;1.40;;;;;;;21.91;52.30;101158.16;3572763;40;20253;-82
2021/08/02 10:52:34;;;;;;;3.33;1.20;;;;;;;22.03;52.12;101147.47;3572949;40;20327;-79
2021/08/02 10:54:59;;;;;;;3.43;1.40;;;;;;;22.30;51.42;101149.44;3570833;40;20226;-81
2021/08/02 10:57:25;;;;;;;4.53;1.67;;;;;;;22.07;52.00;101156.94;3573284;40;20223;-80
2021/08/02 10:59:50;;;;;;;4.63;1.40;;;;;;;22.28;50.99;101154.69;3572206;40;20737;-80
2021/08/02 11:02:16;;;;;;;2.53;1.27;;;;;;;22.33;50.00;101155.44;3573059;40;20226;-79
2021/08/02 11:04:42;;;;;;;3.13;1.20;;;;;;;22.47;48.88;101157.75;3572691;40;20226;-80
2021/08/02 11:07:08;;;;;;;2.53;1.10;;;;;;;22.65;47.46;101141.63;3573364;40;20308;-80
2021/08/02 11:09:36;;;;;;;3.53;1.30;;;;;;;22.67;47.03;101149.44;3573081;40;20289;-80
2021/08/02 11:12:13;;;;;;;2.50;1.40;;;;;;;22.71;46.71;101140.63;3564186;40;20606;-80
2021/08/02 11:14:45;;;;;;;3.43;1.40;;;;;;;22.70;47.10;101141.53;3561901;40;20289;-81
2021/08/02 11:17:16;;;;;;;3.83;1.33;;;;;;;22.87;47.67;101139.31;3562911;40;20249;-80
2021/08/02 11:19:41;;;;;;;4.13;1.63;;;;;;;22.99;46.32;101141.63;3562914;40;20663;-81
2021/08/02 11:22:07;;;;;;;4.67;1.23;;;;;;;22.50;47.56;101168.13;3565195;40;20241;-80
2021/08/02 11:24:38;;;;;;;3.53;1.30;;;;;;;21.66;50.86;101191.66;3564828;40;20247;-81
2021/08/02 11:27:06;;;;;;;3.60;1.20;;;;;;;20.80;54.39;101200.22;3573349;40;20264;-81